sensor_id;sensor_type;location;lat;lon;timestamp;P1;durP1;ratioP1;P2;durP2;ratioP2
3131;SDS011;62090;52.330;9.104;2023-07-28T00:02:11;7.50;;;2.53;;
3131;SDS011;62090;52.330;9.104;2023-07-28T00:04:41;6.73;;;2.50;;
3131;SDS011;62090;52.330;9.104;2023-07-28T00:07:11;12.20;;;2.87;;
3131;SDS011;62090;52.330;9.104;2023-07-28T00:09:41;12.60;;;2.90;;
3131;SDS011;62090;52.330;9.104;2023-07-28T00:12:11;3.50;;;2.67;;
3131;SDS011;62090;52.330;9.104;2023-07-28T00:14:43;3.00;;;2.43;;
3131;SDS011;62090;52.330;9.104;2023-07-28T00:17:13;7.33;;;2.70;;
3131;SDS011;62090;52.330;9.104;2023-07-28T00:19:43;3.60;;;2.40;;
3131;SDS011;62090;52.330;9.104;2023-07-28T00:22:13;9.20;;;2.63;;
3131;SDS011;62090;52.330;9.104;2023-07-28T00:24:43;6.00;;;2.40;;
3131;SDS011;62090;52.330;9.104;2023-07-28T00:27:13;4.43;;;3.10;;
3131;SDS011;62090;52.330;9.104;2023-07-28T00:29:46;4.10;;;2.80;;
3131;SDS011;62090;52.330;9.104;2023-07-28T00:32:16;4.77;;;2.57;;
3131;SDS011;62090;52.330;9.104;2023-07-28T00:34:46;2.20;;;1.93;;
3131;SDS011;62090;52.330;9.104;2023-07-28T00:37:16;6.30;;;2.67;;
3131;SDS011;62090;52.330;9.104;2023-07-28T00:39:46;8.73;;;2.33;;
3131;SDS011;62090;52.330;9.104;2023-07-28T00:42:16;6.30;;;1.83;;
3131;SDS011;62090;52.330;9.104;2023-07-28T00:44:49;7.70;;;2.80;;
3131;SDS011;62090;52.330;9.104;2023-07-28T00:47:19;5.60;;;2.50;;
3131;SDS011;62090;52.330;9.104;2023-07-28T00:49:49;2.97;;;2.33;;
3131;SDS011;62090;52.330;9.104;2023-07-28T00:52:19;4.47;;;2.50;;
3131;SDS011;62090;52.330;9.104;2023-07-28T00:54:48;3.20;;;2.10;;
3131;SDS011;62090;52.330;9.104;2023-07-28T00:57:18;4.20;;;2.43;;
3131;SDS011;62090;52.330;9.104;2023-07-28T00:59:51;6.50;;;2.77;;
3131;SDS011;62090;52.330;9.104;2023-07-28T01:02:22;7.63;;;3.07;;
3131;SDS011;62090;52.330;9.104;2023-07-28T01:04:52;4.17;;;2.20;;
3131;SDS011;62090;52.330;9.104;2023-07-28T01:07:23;5.63;;;2.43;;
3131;SDS011;62090;52.330;9.104;2023-07-28T01:10:01;4.63;;;2.80;;
3131;SDS011;62090;52.330;9.104;2023-07-28T01:12:35;4.03;;;2.40;;
3131;SDS011;62090;52.330;9.104;2023-07-28T01:15:08;3.77;;;2.47;;
3131;SDS011;62090;52.330;9.104;2023-07-28T01:17:41;4.60;;;2.50;;
3131;SDS011;62090;52.330;9.104;2023-07-28T01:20:12;5.67;;;3.17;;
3131;SDS011;62090;52.330;9.104;2023-07-28T01:22:49;4.17;;;2.67;;
3131;SDS011;62090;52.330;9.104;2023-07-28T01:25:36;3.67;;;2.43;;
3131;SDS011;62090;52.330;9.104;2023-07-28T01:28:15;2.80;;;2.57;;
3131;SDS011;62090;52.330;9.104;2023-07-28T01:30:47;9.60;;;3.30;;
3131;SDS011;62090;52.330;9.104;2023-07-28T01:33:17;7.60;;;3.00;;
3131;SDS011;62090;52.330;9.104;2023-07-28T01:35:47;3.40;;;2.60;;
3131;SDS011;62090;52.330;9.104;2023-07-28T01:38:17;3.33;;;2.93;;
3131;SDS011;62090;52.330;9.104;2023-07-28T01:40:46;4.20;;;2.60;;
3131;SDS011;62090;52.330;9.104;2023-07-28T01:43:19;4.47;;;2.87;;
3131;SDS011;62090;52.330;9.104;2023-07-28T01:45:49;5.80;;;2.80;;
3131;SDS011;62090;52.330;9.104;2023-07-28T01:48:19;3.80;;;3.00;;
3131;SDS011;62090;52.330;9.104;2023-07-28T01:50:49;10.63;;;3.70;;
3131;SDS011;62090;52.330;9.104;2023-07-28T01:53:19;5.60;;;3.40;;
3131;SDS011;62090;52.330;9.104;2023-07-28T01:55:49;4.93;;;3.37;;
3131;SDS011;62090;52.330;9.104;2023-07-28T01:58:21;7.63;;;3.87;;
3131;SDS011;62090;52.330;9.104;2023-07-28T02:00:51;5.83;;;3.53;;
3131;SDS011;62090;52.330;9.104;2023-07-28T02:03:21;9.30;;;3.57;;
3131;SDS011;62090;52.330;9.104;2023-07-28T02:05:51;5.27;;;3.77;;
3131;SDS011;62090;52.330;9.104;2023-07-28T02:08:21;7.70;;;3.63;;
3131;SDS011;62090;52.330;9.104;2023-07-28T02:10:52;6.73;;;3.70;;
3131;SDS011;62090;52.330;9.104;2023-07-28T02:13:25;6.90;;;3.50;;
3131;SDS011;62090;52.330;9.104;2023-07-28T02:15:55;5.37;;;3.23;;
3131;SDS011;62090;52.330;9.104;2023-07-28T02:18:25;5.00;;;3.10;;
3131;SDS011;62090;52.330;9.104;2023-07-28T02:20:55;5.33;;;3.00;;
3131;SDS011;62090;52.330;9.104;2023-07-28T02:23:25;5.47;;;3.40;;
3131;SDS011;62090;52.330;9.104;2023-07-28T02:25:55;6.47;;;3.20;;
3131;SDS011;62090;52.330;9.104;2023-07-28T02:28:27;5.93;;;3.33;;
3131;SDS011;62090;52.330;9.104;2023-07-28T02:30:57;3.33;;;2.43;;
3131;SDS011;62090;52.330;9.104;2023-07-28T02:33:27;5.70;;;3.20;;
3131;SDS011;62090;52.330;9.104;2023-07-28T02:36:02;5.50;;;3.80;;
3131;SDS011;62090;52.330;9.104;2023-07-28T02:38:32;7.87;;;3.10;;
3131;SDS011;62090;52.330;9.104;2023-07-28T02:41:02;6.00;;;3.30;;
3131;SDS011;62090;52.330;9.104;2023-07-28T02:43:35;3.70;;;2.80;;
3131;SDS011;62090;52.330;9.104;2023-07-28T02:46:05;5.63;;;2.90;;
3131;SDS011;62090;52.330;9.104;2023-07-28T02:48:34;6.00;;;2.50;;
3131;SDS011;62090;52.330;9.104;2023-07-28T02:51:04;15.03;;;3.50;;
3131;SDS011;62090;52.330;9.104;2023-07-28T02:53:34;7.53;;;3.27;;
3131;SDS011;62090;52.330;9.104;2023-07-28T02:56:04;6.77;;;3.53;;
3131;SDS011;62090;52.330;9.104;2023-07-28T02:58:36;5.47;;;2.73;;
3131;SDS011;62090;52.330;9.104;2023-07-28T03:01:06;5.47;;;2.80;;
3131;SDS011;62090;52.330;9.104;2023-07-28T03:03:37;6.20;;;3.30;;
3131;SDS011;62090;52.330;9.104;2023-07-28T03:06:07;3.60;;;2.73;;
3131;SDS011;62090;52.330;9.104;2023-07-28T03:08:38;5.60;;;2.60;;
3131;SDS011;62090;52.330;9.104;2023-07-28T03:11:36;12.10;;;2.90;;
3131;SDS011;62090;52.330;9.104;2023-07-28T03:14:08;6.60;;;3.50;;
3131;SDS011;62090;52.330;9.104;2023-07-28T03:16:39;4.43;;;2.30;;
3131;SDS011;62090;52.330;9.104;2023-07-28T03:19:10;3.93;;;2.40;;
3131;SDS011;62090;52.330;9.104;2023-07-28T03:21:40;4.80;;;2.50;;
3131;SDS011;62090;52.330;9.104;2023-07-28T03:24:10;2.20;;;2.00;;
3131;SDS011;62090;52.330;9.104;2023-07-28T03:26:40;3.80;;;2.17;;
3131;SDS011;62090;52.330;9.104;2023-07-28T03:29:13;3.93;;;2.23;;
3131;SDS011;62090;52.330;9.104;2023-07-28T03:31:43;4.47;;;2.70;;
3131;SDS011;62090;52.330;9.104;2023-07-28T03:34:13;3.57;;;1.97;;
3131;SDS011;62090;52.330;9.104;2023-07-28T03:36:43;2.40;;;2.10;;
3131;SDS011;62090;52.330;9.104;2023-07-28T03:39:14;4.27;;;2.40;;
3131;SDS011;62090;52.330;9.104;2023-07-28T03:41:47;3.83;;;2.43;;
3131;SDS011;62090;52.330;9.104;2023-07-28T03:44:19;7.90;;;2.60;;
3131;SDS011;62090;52.330;9.104;2023-07-28T03:46:49;4.63;;;2.50;;
3131;SDS011;62090;52.330;9.104;2023-07-28T03:49:20;2.43;;;1.80;;
3131;SDS011;62090;52.330;9.104;2023-07-28T03:51:49;4.03;;;2.07;;
3131;SDS011;62090;52.330;9.104;2023-07-28T03:54:19;2.00;;;1.80;;
3131;SDS011;62090;52.330;9.104;2023-07-28T03:56:49;3.97;;;1.70;;
3131;SDS011;62090;52.330;9.104;2023-07-28T03:59:22;2.50;;;1.80;;
3131;SDS011;62090;52.330;9.104;2023-07-28T04:01:55;2.20;;;1.80;;
3131;SDS011;62090;52.330;9.104;2023-07-28T04:04:25;5.57;;;1.73;;
3131;SDS011;62090;52.330;9.104;2023-07-28T04:06:55;3.90;;;2.50;;
3131;SDS011;62090;52.330;9.104;2023-07-28T04:09:27;3.13;;;1.87;;
3131;SDS011;62090;52.330;9.104;2023-07-28T04:11:57;9.43;;;2.00;;
3131;SDS011;62090;52.330;9.104;2023-07-28T04:14:29;4.97;;;2.60;;
3131;SDS011;62090;52.330;9.104;2023-07-28T04:16:59;3.23;;;1.60;;
3131;SDS011;62090;52.330;9.104;2023-07-28T04:19:29;5.37;;;2.37;;
3131;SDS011;62090;52.330;9.104;2023-07-28T04:22:00;2.87;;;1.93;;
3131;SDS011;62090;52.330;9.104;2023-07-28T04:24:32;2.00;;;1.60;;
3131;SDS011;62090;52.330;9.104;2023-07-28T04:27:02;4.03;;;1.80;;
3131;SDS011;62090;52.330;9.104;2023-07-28T04:29:34;3.00;;;2.00;;
3131;SDS011;62090;52.330;9.104;2023-07-28T04:32:07;5.23;;;2.10;;
3131;SDS011;62090;52.330;9.104;2023-07-28T04:34:37;2.57;;;1.77;;
3131;SDS011;62090;52.330;9.104;2023-07-28T04:37:27;2.53;;;1.90;;
3131;SDS011;62090;52.330;9.104;2023-07-28T04:40:00;2.30;;;1.83;;
3131;SDS011;62090;52.330;9.104;2023-07-28T04:42:34;4.10;;;3.07;;
3131;SDS011;62090;52.330;9.104;2023-07-28T04:45:08;5.97;;;2.67;;
3131;SDS011;62090;52.330;9.104;2023-07-28T04:47:39;3.63;;;3.00;;
3131;SDS011;62090;52.330;9.104;2023-07-28T04:50:09;5.20;;;3.00;;
3131;SDS011;62090;52.330;9.104;2023-07-28T04:52:58;6.00;;;4.00;;
3131;SDS011;62090;52.330;9.104;2023-07-28T04:55:43;8.83;;;4.50;;
3131;SDS011;62090;52.330;9.104;2023-07-28T04:58:13;5.23;;;3.00;;
3131;SDS011;62090;52.330;9.104;2023-07-28T05:00:50;8.47;;;3.97;;
3131;SDS011;62090;52.330;9.104;2023-07-28T05:03:23;7.00;;;4.60;;
3131;SDS011;62090;52.330;9.104;2023-07-28T05:05:59;8.83;;;4.23;;
3131;SDS011;62090;52.330;9.104;2023-07-28T05:08:30;11.63;;;3.43;;
3131;SDS011;62090;52.330;9.104;2023-07-28T05:11:00;8.00;;;4.37;;
3131;SDS011;62090;52.330;9.104;2023-07-28T05:13:32;12.63;;;5.07;;
3131;SDS011;62090;52.330;9.104;2023-07-28T05:16:05;7.80;;;4.50;;
3131;SDS011;62090;52.330;9.104;2023-07-28T05:18:58;13.80;;;4.30;;
3131;SDS011;62090;52.330;9.104;2023-07-28T05:21:46;6.07;;;3.83;;
3131;SDS011;62090;52.330;9.104;2023-07-28T05:24:19;7.47;;;4.67;;
3131;SDS011;62090;52.330;9.104;2023-07-28T05:26:49;6.37;;;4.13;;
3131;SDS011;62090;52.330;9.104;2023-07-28T05:29:19;7.23;;;3.67;;
3131;SDS011;62090;52.330;9.104;2023-07-28T05:31:54;6.30;;;3.73;;
3131;SDS011;62090;52.330;9.104;2023-07-28T05:34:31;7.80;;;3.93;;
3131;SDS011;62090;52.330;9.104;2023-07-28T05:37:01;7.03;;;3.50;;
3131;SDS011;62090;52.330;9.104;2023-07-28T05:39:33;4.60;;;3.27;;
3131;SDS011;62090;52.330;9.104;2023-07-28T05:42:03;9.37;;;3.90;;
3131;SDS011;62090;52.330;9.104;2023-07-28T05:44:33;6.53;;;4.20;;
3131;SDS011;62090;52.330;9.104;2023-07-28T05:47:06;4.77;;;3.40;;
3131;SDS011;62090;52.330;9.104;2023-07-28T05:49:36;8.33;;;4.77;;
3131;SDS011;62090;52.330;9.104;2023-07-28T05:52:06;13.77;;;3.90;;
3131;SDS011;62090;52.330;9.104;2023-07-28T05:54:37;8.20;;;4.03;;
3131;SDS011;62090;52.330;9.104;2023-07-28T05:57:06;8.80;;;4.00;;
3131;SDS011;62090;52.330;9.104;2023-07-28T05:59:36;10.13;;;3.70;;
3131;SDS011;62090;52.330;9.104;2023-07-28T06:02:09;6.20;;;2.87;;
3131;SDS011;62090;52.330;9.104;2023-07-28T06:04:47;8.73;;;3.43;;
3131;SDS011;62090;52.330;9.104;2023-07-28T06:07:17;4.90;;;3.53;;
3131;SDS011;62090;52.330;9.104;2023-07-28T06:09:47;4.17;;;3.27;;
3131;SDS011;62090;52.330;9.104;2023-07-28T06:12:17;4.37;;;3.60;;
3131;SDS011;62090;52.330;9.104;2023-07-28T06:14:47;3.33;;;2.70;;
3131;SDS011;62090;52.330;9.104;2023-07-28T06:17:22;3.70;;;2.93;;
3131;SDS011;62090;52.330;9.104;2023-07-28T06:19:54;7.00;;;3.50;;
3131;SDS011;62090;52.330;9.104;2023-07-28T06:22:24;4.10;;;3.13;;
3131;SDS011;62090;52.330;9.104;2023-07-28T06:24:54;7.20;;;4.47;;
3131;SDS011;62090;52.330;9.104;2023-07-28T06:27:24;6.50;;;4.30;;
3131;SDS011;62090;52.330;9.104;2023-07-28T06:29:54;5.87;;;3.57;;
3131;SDS011;62090;52.330;9.104;2023-07-28T06:32:27;5.87;;;3.47;;
3131;SDS011;62090;52.330;9.104;2023-07-28T06:34:57;5.13;;;3.73;;
3131;SDS011;62090;52.330;9.104;2023-07-28T06:37:27;4.00;;;3.40;;
3131;SDS011;62090;52.330;9.104;2023-07-28T06:40:00;3.40;;;2.97;;
3131;SDS011;62090;52.330;9.104;2023-07-28T06:42:36;7.53;;;3.60;;
3131;SDS011;62090;52.330;9.104;2023-07-28T06:45:07;4.83;;;3.50;;
3131;SDS011;62090;52.330;9.104;2023-07-28T06:47:42;5.67;;;3.87;;
3131;SDS011;62090;52.330;9.104;2023-07-28T06:50:12;6.13;;;3.50;;
3131;SDS011;62090;52.330;9.104;2023-07-28T06:52:44;6.10;;;2.90;;
3131;SDS011;62090;52.330;9.104;2023-07-28T06:55:14;4.47;;;3.30;;
3131;SDS011;62090;52.330;9.104;2023-07-28T06:57:44;6.20;;;3.40;;
3131;SDS011;62090;52.330;9.104;2023-07-28T07:00:16;5.90;;;3.33;;
3131;SDS011;62090;52.330;9.104;2023-07-28T07:02:49;6.23;;;4.10;;
3131;SDS011;62090;52.330;9.104;2023-07-28T07:05:19;3.47;;;3.13;;
3131;SDS011;62090;52.330;9.104;2023-07-28T07:07:50;6.87;;;3.83;;
3131;SDS011;62090;52.330;9.104;2023-07-28T07:10:21;6.20;;;3.43;;
3131;SDS011;62090;52.330;9.104;2023-07-28T07:12:51;6.77;;;3.67;;
3131;SDS011;62090;52.330;9.104;2023-07-28T07:15:23;6.23;;;3.77;;
3131;SDS011;62090;52.330;9.104;2023-07-28T07:17:58;4.37;;;3.60;;
3131;SDS011;62090;52.330;9.104;2023-07-28T07:20:28;3.10;;;2.57;;
3131;SDS011;62090;52.330;9.104;2023-07-28T07:23:00;3.53;;;3.03;;
3131;SDS011;62090;52.330;9.104;2023-07-28T07:25:29;4.87;;;2.93;;
3131;SDS011;62090;52.330;9.104;2023-07-28T07:28:03;4.00;;;2.67;;
3131;SDS011;62090;52.330;9.104;2023-07-28T07:30:33;3.30;;;2.43;;
3131;SDS011;62090;52.330;9.104;2023-07-28T07:33:05;3.17;;;2.80;;
3131;SDS011;62090;52.330;9.104;2023-07-28T07:35:36;3.87;;;3.00;;
3131;SDS011;62090;52.330;9.104;2023-07-28T07:38:06;8.77;;;3.20;;
3131;SDS011;62090;52.330;9.104;2023-07-28T07:40:37;4.43;;;2.67;;
3131;SDS011;62090;52.330;9.104;2023-07-28T07:43:07;3.53;;;2.90;;
3131;SDS011;62090;52.330;9.104;2023-07-28T07:45:39;3.10;;;2.80;;
3131;SDS011;62090;52.330;9.104;2023-07-28T07:48:28;9.10;;;2.63;;
3131;SDS011;62090;52.330;9.104;2023-07-28T07:51:01;3.97;;;2.50;;
3131;SDS011;62090;52.330;9.104;2023-07-28T07:53:37;4.53;;;2.20;;
3131;SDS011;62090;52.330;9.104;2023-07-28T07:56:11;8.03;;;2.90;;
3131;SDS011;62090;52.330;9.104;2023-07-28T07:58:41;4.30;;;2.90;;
3131;SDS011;62090;52.330;9.104;2023-07-28T08:01:11;2.90;;;2.43;;
3131;SDS011;62090;52.330;9.104;2023-07-28T08:03:44;2.53;;;2.33;;
3131;SDS011;62090;52.330;9.104;2023-07-28T08:06:14;4.83;;;2.30;;
3131;SDS011;62090;52.330;9.104;2023-07-28T08:08:44;4.13;;;2.23;;
3131;SDS011;62090;52.330;9.104;2023-07-28T08:11:14;6.77;;;2.53;;
3131;SDS011;62090;52.330;9.104;2023-07-28T08:13:44;4.97;;;2.90;;
3131;SDS011;62090;52.330;9.104;2023-07-28T08:16:15;2.67;;;1.90;;
3131;SDS011;62090;52.330;9.104;2023-07-28T08:18:48;2.80;;;2.10;;
3131;SDS011;62090;52.330;9.104;2023-07-28T08:21:19;2.20;;;1.80;;
3131;SDS011;62090;52.330;9.104;2023-07-28T08:23:52;2.70;;;2.07;;
3131;SDS011;62090;52.330;9.104;2023-07-28T08:26:22;2.83;;;1.97;;
3131;SDS011;62090;52.330;9.104;2023-07-28T08:28:52;4.40;;;2.30;;
3131;SDS011;62090;52.330;9.104;2023-07-28T08:31:23;5.03;;;3.07;;
3131;SDS011;62090;52.330;9.104;2023-07-28T08:33:56;2.83;;;2.40;;
3131;SDS011;62090;52.330;9.104;2023-07-28T08:36:26;2.40;;;1.87;;
3131;SDS011;62090;52.330;9.104;2023-07-28T08:38:56;3.60;;;2.40;;
3131;SDS011;62090;52.330;9.104;2023-07-28T08:41:27;4.90;;;2.27;;
3131;SDS011;62090;52.330;9.104;2023-07-28T08:43:57;5.87;;;2.13;;
3131;SDS011;62090;52.330;9.104;2023-07-28T08:46:27;2.70;;;1.93;;
3131;SDS011;62090;52.330;9.104;2023-07-28T08:49:03;2.07;;;1.87;;
3131;SDS011;62090;52.330;9.104;2023-07-28T08:51:33;3.93;;;2.33;;
3131;SDS011;62090;52.330;9.104;2023-07-28T08:54:06;1.60;;;1.50;;
3131;SDS011;62090;52.330;9.104;2023-07-28T08:56:38;4.50;;;1.93;;
3131;SDS011;62090;52.330;9.104;2023-07-28T08:59:10;4.67;;;2.43;;
3131;SDS011;62090;52.330;9.104;2023-07-28T09:01:41;4.00;;;2.13;;
3131;SDS011;62090;52.330;9.104;2023-07-28T09:04:15;1.50;;;1.40;;
3131;SDS011;62090;52.330;9.104;2023-07-28T09:06:47;2.37;;;1.80;;
3131;SDS011;62090;52.330;9.104;2023-07-28T09:09:20;2.27;;;1.40;;
3131;SDS011;62090;52.330;9.104;2023-07-28T09:11:53;6.40;;;2.23;;
3131;SDS011;62090;52.330;9.104;2023-07-28T09:14:25;1.93;;;1.60;;
3131;SDS011;62090;52.330;9.104;2023-07-28T09:16:59;1.53;;;1.30;;
3131;SDS011;62090;52.330;9.104;2023-07-28T09:19:53;2.20;;;1.80;;
3131;SDS011;62090;52.330;9.104;2023-07-28T09:22:24;1.63;;;1.53;;
3131;SDS011;62090;52.330;9.104;2023-07-28T09:24:55;3.50;;;2.03;;
3131;SDS011;62090;52.330;9.104;2023-07-28T09:27:27;2.40;;;2.20;;
3131;SDS011;62090;52.330;9.104;2023-07-28T09:29:59;4.93;;;1.60;;
3131;SDS011;62090;52.330;9.104;2023-07-28T09:32:31;1.67;;;1.50;;
3131;SDS011;62090;52.330;9.104;2023-07-28T09:35:10;4.30;;;2.10;;
3131;SDS011;62090;52.330;9.104;2023-07-28T09:37:43;2.50;;;1.87;;
3131;SDS011;62090;52.330;9.104;2023-07-28T09:40:16;2.70;;;1.73;;
3131;SDS011;62090;52.330;9.104;2023-07-28T09:42:48;3.73;;;2.00;;
3131;SDS011;62090;52.330;9.104;2023-07-28T09:45:22;4.50;;;1.70;;
3131;SDS011;62090;52.330;9.104;2023-07-28T09:48:05;1.90;;;1.67;;
3131;SDS011;62090;52.330;9.104;2023-07-28T09:50:40;3.70;;;2.20;;
3131;SDS011;62090;52.330;9.104;2023-07-28T09:53:11;3.53;;;2.27;;
3131;SDS011;62090;52.330;9.104;2023-07-28T09:55:44;3.70;;;2.43;;
3131;SDS011;62090;52.330;9.104;2023-07-28T09:58:16;4.50;;;2.13;;
3131;SDS011;62090;52.330;9.104;2023-07-28T10:00:49;5.00;;;2.20;;
3131;SDS011;62090;52.330;9.104;2023-07-28T10:03:20;1.77;;;1.67;;
3131;SDS011;62090;52.330;9.104;2023-07-28T10:05:54;4.13;;;2.40;;
3131;SDS011;62090;52.330;9.104;2023-07-28T10:08:25;9.40;;;3.97;;
3131;SDS011;62090;52.330;9.104;2023-07-28T10:10:56;8.50;;;3.57;;
3131;SDS011;62090;52.330;9.104;2023-07-28T10:13:26;4.37;;;2.70;;
3131;SDS011;62090;52.330;9.104;2023-07-28T10:15:57;4.63;;;2.00;;
3131;SDS011;62090;52.330;9.104;2023-07-28T10:18:31;7.50;;;2.57;;
3131;SDS011;62090;52.330;9.104;2023-07-28T10:21:06;2.30;;;2.10;;
3131;SDS011;62090;52.330;9.104;2023-07-28T10:23:39;5.53;;;1.70;;
3131;SDS011;62090;52.330;9.104;2023-07-28T10:26:09;3.27;;;2.37;;
3131;SDS011;62090;52.330;9.104;2023-07-28T10:28:40;5.00;;;2.20;;
3131;SDS011;62090;52.330;9.104;2023-07-28T10:31:10;4.57;;;1.70;;
3131;SDS011;62090;52.330;9.104;2023-07-28T10:33:43;2.07;;;1.80;;
3131;SDS011;62090;52.330;9.104;2023-07-28T10:36:18;2.20;;;2.00;;
3131;SDS011;62090;52.330;9.104;2023-07-28T10:39:12;5.60;;;2.20;;
3131;SDS011;62090;52.330;9.104;2023-07-28T10:42:00;4.20;;;1.80;;
3131;SDS011;62090;52.330;9.104;2023-07-28T10:44:32;7.83;;;2.17;;
3131;SDS011;62090;52.330;9.104;2023-07-28T10:47:04;4.30;;;2.40;;
3131;SDS011;62090;52.330;9.104;2023-07-28T10:49:38;2.77;;;1.70;;
3131;SDS011;62090;52.330;9.104;2023-07-28T10:52:10;2.10;;;1.67;;
3131;SDS011;62090;52.330;9.104;2023-07-28T10:54:41;1.93;;;1.80;;
3131;SDS011;62090;52.330;9.104;2023-07-28T10:57:13;3.67;;;1.80;;
3131;SDS011;62090;52.330;9.104;2023-07-28T10:59:43;4.70;;;2.17;;
3131;SDS011;62090;52.330;9.104;2023-07-28T11:02:14;2.50;;;1.63;;
3131;SDS011;62090;52.330;9.104;2023-07-28T11:04:45;4.53;;;1.80;;
3131;SDS011;62090;52.330;9.104;2023-07-28T11:07:19;3.93;;;2.17;;
3131;SDS011;62090;52.330;9.104;2023-07-28T11:09:50;3.03;;;1.67;;
3131;SDS011;62090;52.330;9.104;2023-07-28T11:12:20;9.83;;;1.73;;
3131;SDS011;62090;52.330;9.104;2023-07-28T11:14:50;2.50;;;2.30;;
3131;SDS011;62090;52.330;9.104;2023-07-28T11:17:21;6.33;;;2.23;;
3131;SDS011;62090;52.330;9.104;2023-07-28T11:19:51;2.33;;;2.13;;
3131;SDS011;62090;52.330;9.104;2023-07-28T11:22:24;2.97;;;1.83;;
3131;SDS011;62090;52.330;9.104;2023-07-28T11:24:54;2.43;;;2.03;;
3131;SDS011;62090;52.330;9.104;2023-07-28T11:27:24;2.20;;;1.80;;
3131;SDS011;62090;52.330;9.104;2023-07-28T11:29:54;2.40;;;2.00;;
3131;SDS011;62090;52.330;9.104;2023-07-28T11:32:24;2.40;;;1.30;;
3131;SDS011;62090;52.330;9.104;2023-07-28T11:34:54;4.53;;;2.30;;
3131;SDS011;62090;52.330;9.104;2023-07-28T11:37:27;2.90;;;2.60;;
3131;SDS011;62090;52.330;9.104;2023-07-28T11:39:56;2.07;;;1.77;;
3131;SDS011;62090;52.330;9.104;2023-07-28T11:42:32;2.00;;;1.80;;
3131;SDS011;62090;52.330;9.104;2023-07-28T11:45:04;2.23;;;1.80;;
3131;SDS011;62090;52.330;9.104;2023-07-28T11:47:36;4.60;;;2.13;;
3131;SDS011;62090;52.330;9.104;2023-07-28T11:50:07;2.43;;;1.90;;
3131;SDS011;62090;52.330;9.104;2023-07-28T11:52:39;3.27;;;2.77;;
3131;SDS011;62090;52.330;9.104;2023-07-28T11:55:09;3.20;;;2.27;;
3131;SDS011;62090;52.330;9.104;2023-07-28T11:57:39;2.03;;;1.87;;
3131;SDS011;62090;52.330;9.104;2023-07-28T12:00:10;4.27;;;2.03;;
3131;SDS011;62090;52.330;9.104;2023-07-28T12:02:44;2.50;;;2.20;;
3131;SDS011;62090;52.330;9.104;2023-07-28T12:05:15;6.40;;;2.47;;
3131;SDS011;62090;52.330;9.104;2023-07-28T12:07:50;11.10;;;1.93;;
3131;SDS011;62090;52.330;9.104;2023-07-28T12:10:20;4.03;;;2.60;;
3131;SDS011;62090;52.330;9.104;2023-07-28T12:12:54;2.93;;;2.60;;
3131;SDS011;62090;52.330;9.104;2023-07-28T12:15:28;10.00;;;2.67;;
3131;SDS011;62090;52.330;9.104;2023-07-28T12:18:06;3.30;;;3.00;;
3131;SDS011;62090;52.330;9.104;2023-07-28T12:20:42;3.47;;;2.60;;
3131;SDS011;62090;52.330;9.104;2023-07-28T12:23:18;3.47;;;2.50;;
3131;SDS011;62090;52.330;9.104;2023-07-28T12:25:52;6.20;;;2.53;;
3131;SDS011;62090;52.330;9.104;2023-07-28T12:28:25;3.60;;;2.80;;
3131;SDS011;62090;52.330;9.104;2023-07-28T12:30:55;4.70;;;2.57;;
3131;SDS011;62090;52.330;9.104;2023-07-28T12:33:26;3.90;;;2.77;;
3131;SDS011;62090;52.330;9.104;2023-07-28T12:35:58;2.90;;;2.30;;
3131;SDS011;62090;52.330;9.104;2023-07-28T12:38:34;4.47;;;2.53;;
3131;SDS011;62090;52.330;9.104;2023-07-28T12:41:07;4.20;;;2.67;;
3131;SDS011;62090;52.330;9.104;2023-07-28T12:43:37;2.70;;;2.10;;
3131;SDS011;62090;52.330;9.104;2023-07-28T12:46:09;3.43;;;2.80;;
3131;SDS011;62090;52.330;9.104;2023-07-28T12:48:40;4.17;;;2.80;;
3131;SDS011;62090;52.330;9.104;2023-07-28T12:51:12;2.20;;;2.00;;
3131;SDS011;62090;52.330;9.104;2023-07-28T12:53:59;9.13;;;2.93;;
3131;SDS011;62090;52.330;9.104;2023-07-28T12:56:29;3.57;;;2.90;;
3131;SDS011;62090;52.330;9.104;2023-07-28T12:59:02;3.27;;;2.93;;
3131;SDS011;62090;52.330;9.104;2023-07-28T13:01:36;2.63;;;2.43;;
3131;SDS011;62090;52.330;9.104;2023-07-28T13:04:07;3.00;;;2.60;;
3131;SDS011;62090;52.330;9.104;2023-07-28T13:06:37;4.33;;;3.00;;
3131;SDS011;62090;52.330;9.104;2023-07-28T13:09:10;5.10;;;2.90;;
3131;SDS011;62090;52.330;9.104;2023-07-28T13:11:43;4.50;;;3.17;;
3131;SDS011;62090;52.330;9.104;2023-07-28T13:14:16;6.43;;;2.53;;
3131;SDS011;62090;52.330;9.104;2023-07-28T13:16:45;8.60;;;2.57;;
3131;SDS011;62090;52.330;9.104;2023-07-28T13:19:16;5.63;;;3.00;;
3131;SDS011;62090;52.330;9.104;2023-07-28T13:21:46;6.70;;;2.80;;
3131;SDS011;62090;52.330;9.104;2023-07-28T13:24:18;8.80;;;3.50;;
3131;SDS011;62090;52.330;9.104;2023-07-28T13:26:48;3.00;;;2.70;;
3131;SDS011;62090;52.330;9.104;2023-07-28T13:29:18;5.80;;;3.10;;
3131;SDS011;62090;52.330;9.104;2023-07-28T13:31:48;2.63;;;2.43;;
3131;SDS011;62090;52.330;9.104;2023-07-28T13:34:18;5.20;;;2.47;;
3131;SDS011;62090;52.330;9.104;2023-07-28T13:36:48;4.90;;;3.03;;
3131;SDS011;62090;52.330;9.104;2023-07-28T13:39:20;4.27;;;2.77;;
3131;SDS011;62090;52.330;9.104;2023-07-28T13:41:51;3.77;;;2.63;;
3131;SDS011;62090;52.330;9.104;2023-07-28T13:44:21;4.13;;;2.43;;
3131;SDS011;62090;52.330;9.104;2023-07-28T13:46:57;6.20;;;2.33;;
3131;SDS011;62090;52.330;9.104;2023-07-28T13:49:28;2.60;;;2.33;;
3131;SDS011;62090;52.330;9.104;2023-07-28T13:51:57;2.90;;;2.33;;
3131;SDS011;62090;52.330;9.104;2023-07-28T13:54:33;2.03;;;1.83;;
3131;SDS011;62090;52.330;9.104;2023-07-28T13:57:23;3.23;;;2.33;;
3131;SDS011;62090;52.330;9.104;2023-07-28T13:59:53;3.50;;;2.33;;
3131;SDS011;62090;52.330;9.104;2023-07-28T14:02:23;7.50;;;2.30;;
3131;SDS011;62090;52.330;9.104;2023-07-28T14:04:53;3.87;;;2.23;;
3131;SDS011;62090;52.330;9.104;2023-07-28T14:07:23;3.20;;;2.40;;
3131;SDS011;62090;52.330;9.104;2023-07-28T14:09:55;4.10;;;2.90;;
3131;SDS011;62090;52.330;9.104;2023-07-28T14:12:25;3.37;;;2.70;;
3131;SDS011;62090;52.330;9.104;2023-07-28T14:14:55;2.63;;;2.37;;
3131;SDS011;62090;52.330;9.104;2023-07-28T14:17:25;6.20;;;2.70;;
3131;SDS011;62090;52.330;9.104;2023-07-28T14:19:55;2.83;;;2.53;;
3131;SDS011;62090;52.330;9.104;2023-07-28T14:22:25;3.53;;;2.80;;
3131;SDS011;62090;52.330;9.104;2023-07-28T14:24:57;4.90;;;2.90;;
3131;SDS011;62090;52.330;9.104;2023-07-28T14:27:27;4.90;;;2.47;;
3131;SDS011;62090;52.330;9.104;2023-07-28T14:29:57;4.10;;;2.47;;
3131;SDS011;62090;52.330;9.104;2023-07-28T14:32:28;7.20;;;3.10;;
3131;SDS011;62090;52.330;9.104;2023-07-28T14:34:58;5.30;;;2.63;;
3131;SDS011;62090;52.330;9.104;2023-07-28T14:37:27;2.37;;;2.17;;
3131;SDS011;62090;52.330;9.104;2023-07-28T14:40:00;4.70;;;2.87;;
3131;SDS011;62090;52.330;9.104;2023-07-28T14:42:30;7.00;;;2.97;;
3131;SDS011;62090;52.330;9.104;2023-07-28T14:45:00;4.23;;;2.70;;
3131;SDS011;62090;52.330;9.104;2023-07-28T14:47:30;3.30;;;2.80;;
3131;SDS011;62090;52.330;9.104;2023-07-28T14:49:59;2.90;;;2.40;;
3131;SDS011;62090;52.330;9.104;2023-07-28T14:52:30;5.80;;;2.90;;
3131;SDS011;62090;52.330;9.104;2023-07-28T14:55:02;2.30;;;2.10;;
3131;SDS011;62090;52.330;9.104;2023-07-28T14:57:33;6.63;;;2.73;;
3131;SDS011;62090;52.330;9.104;2023-07-28T15:00:03;2.77;;;2.40;;
3131;SDS011;62090;52.330;9.104;2023-07-28T15:02:35;4.60;;;2.73;;
3131;SDS011;62090;52.330;9.104;2023-07-28T15:05:05;2.97;;;2.00;;
3131;SDS011;62090;52.330;9.104;2023-07-28T15:07:36;4.40;;;2.80;;
3131;SDS011;62090;52.330;9.104;2023-07-28T15:10:09;4.23;;;2.67;;
3131;SDS011;62090;52.330;9.104;2023-07-28T15:12:39;4.13;;;2.70;;
3131;SDS011;62090;52.330;9.104;2023-07-28T15:15:11;5.73;;;2.77;;
3131;SDS011;62090;52.330;9.104;2023-07-28T15:17:41;4.53;;;2.87;;
3131;SDS011;62090;52.330;9.104;2023-07-28T15:20:11;5.30;;;3.50;;
3131;SDS011;62090;52.330;9.104;2023-07-28T15:22:41;4.40;;;2.97;;
3131;SDS011;62090;52.330;9.104;2023-07-28T15:25:14;4.40;;;3.25;;
3131;SDS011;62090;52.330;9.104;2023-07-28T15:27:44;18.93;;;3.90;;
3131;SDS011;62090;52.330;9.104;2023-07-28T15:30:13;7.50;;;2.73;;